createdAt,value
2022-09-26T00:00:50.758Z,14.44
2022-09-26T00:03:22.533Z,14.38
2022-09-26T00:05:59.500Z,14.38
2022-09-26T00:08:32.556Z,14.40
2022-09-26T00:11:07.656Z,14.41
2022-09-26T00:13:41.564Z,14.39
2022-09-26T00:16:15.329Z,14.35
2022-09-26T00:18:51.443Z,14.37
2022-09-26T00:21:27.647Z,14.33
2022-09-26T00:24:00.806Z,14.32
2022-09-26T00:26:39.522Z,14.30
2022-09-26T00:29:14.879Z,14.25
2022-09-26T00:31:47.619Z,14.22
2022-09-26T00:34:20.351Z,14.23
2022-09-26T00:36:53.402Z,14.17
2022-09-26T00:39:27.280Z,14.17
2022-09-26T00:41:58.878Z,14.14
2022-09-26T00:44:49.495Z,14.01
2022-09-26T00:47:41.729Z,13.91
2022-09-26T00:50:29.512Z,13.85
2022-09-26T00:53:10.815Z,13.83
2022-09-26T00:55:56.224Z,13.84
2022-09-26T00:58:38.118Z,13.84
2022-09-26T01:01:10.497Z,13.84
2022-09-26T01:03:49.167Z,13.78
2022-09-26T01:06:24.121Z,13.72
2022-09-26T01:08:59.901Z,13.68
2022-09-26T01:11:32.487Z,13.69
2022-09-26T01:14:09.878Z,13.65
2022-09-26T01:16:46.664Z,13.66
2022-09-26T01:19:52.371Z,13.66
2022-09-26T01:22:27.005Z,13.59
2022-09-26T01:25:35.062Z,13.49
2022-09-26T01:28:33.805Z,13.49
2022-09-26T01:31:20.643Z,13.50
2022-09-26T01:34:39.088Z,13.48
2022-09-26T01:37:32.434Z,13.45
2022-09-26T01:40:22.103Z,13.40
2022-09-26T01:43:02.538Z,13.36
2022-09-26T01:45:57.368Z,13.37
2022-09-26T01:49:04.829Z,13.38
2022-09-26T01:52:04.516Z,13.25
2022-09-26T01:54:49.997Z,13.27
2022-09-26T01:57:28.605Z,13.27
2022-09-26T02:00:04.077Z,13.28
2022-09-26T02:03:04.657Z,13.27
2022-09-26T02:05:48.804Z,13.24
2022-09-26T02:08:24.663Z,13.24
2022-09-26T02:11:06.681Z,13.25
2022-09-26T02:13:49.450Z,13.20
2022-09-26T02:16:47.674Z,13.19
2022-09-26T02:19:47.922Z,13.07
2022-09-26T02:22:21.581Z,13.05
2022-09-26T02:24:53.835Z,13.07
2022-09-26T02:27:27.279Z,13.08
2022-09-26T02:29:59.447Z,13.02
2022-09-26T02:32:32.952Z,12.98
2022-09-26T02:35:31.697Z,12.99
2022-09-26T02:38:30.863Z,12.94
2022-09-26T02:41:22.077Z,12.90
2022-09-26T02:44:10.864Z,12.90
2022-09-26T02:47:20.944Z,12.86
2022-09-26T02:50:48.473Z,12.75
2022-09-26T02:53:42.878Z,12.73
2022-09-26T02:56:33.439Z,12.72
2022-09-26T02:59:08.601Z,12.73
2022-09-26T03:02:01.750Z,12.72
2022-09-26T03:05:18.890Z,12.71
2022-09-26T03:07:56.667Z,12.69
2022-09-26T03:10:34.669Z,12.72
2022-09-26T03:13:10.603Z,12.63
2022-09-26T03:15:45.562Z,12.61
2022-09-26T03:18:26.389Z,12.62
2022-09-26T03:21:00.199Z,12.58
2022-09-26T03:23:31.889Z,12.57
2022-09-26T03:26:11.651Z,12.57
2022-09-26T03:28:53.901Z,12.60
2022-09-26T03:31:25.806Z,12.62
2022-09-26T03:34:29.409Z,12.58
2022-09-26T03:37:01.808Z,12.50
2022-09-26T03:39:33.500Z,12.49
2022-09-26T03:42:10.446Z,12.50
2022-09-26T03:44:44.059Z,12.53
2022-09-26T03:47:18.522Z,12.56
2022-09-26T03:49:54.841Z,12.51
2022-09-26T03:52:30.576Z,12.48
2022-09-26T03:55:06.218Z,12.49
2022-09-26T03:57:38.233Z,12.49
2022-09-26T04:00:23.026Z,12.49
2022-09-26T04:02:54.714Z,12.47
2022-09-26T04:05:39.120Z,12.48
2022-09-26T04:08:12.220Z,12.48
2022-09-26T04:10:46.223Z,12.45
2022-09-26T04:13:46.593Z,12.40
2022-09-26T04:16:10.593Z,12.38
2022-09-26T04:18:48.443Z,12.36
2022-09-26T04:21:23.525Z,12.27
2022-09-26T04:23:55.653Z,12.27
2022-09-26T04:26:30.099Z,12.23
2022-09-26T04:29:02.226Z,12.19
2022-09-26T04:32:00.011Z,12.22
2022-09-26T04:34:40.275Z,12.25
2022-09-26T04:37:13.500Z,12.27
2022-09-26T04:39:47.321Z,12.30
2022-09-26T04:42:19.093Z,12.22
2022-09-26T04:44:51.890Z,12.26
2022-09-26T04:47:29.547Z,12.33
2022-09-26T04:50:37.096Z,12.41
2022-09-26T04:53:11.023Z,12.38
2022-09-26T04:55:49.156Z,12.43
2022-09-26T04:58:21.649Z,12.47
2022-09-26T05:00:53.682Z,12.50
2022-09-26T05:03:39.417Z,12.51
2022-09-26T05:06:12.780Z,12.49
2022-09-26T05:08:48.634Z,12.51
2022-09-26T05:11:25.077Z,12.56
2022-09-26T05:13:57.746Z,12.55
2022-09-26T05:16:33.775Z,12.55
2022-09-26T05:19:09.263Z,12.55
2022-09-26T05:21:46.692Z,12.59
2022-09-26T05:24:40.888Z,12.59
2022-09-26T05:27:14.158Z,12.53
2022-09-26T05:32:46.096Z,12.61
2022-09-26T05:35:18.169Z,12.68
2022-09-26T05:38:02.535Z,12.73
2022-09-26T05:40:54.615Z,12.79
2022-09-26T05:43:35.706Z,12.79
2022-09-26T05:46:12.061Z,12.84
2022-09-26T05:48:50.544Z,12.85
2022-09-26T05:51:25.815Z,12.90
2022-09-26T05:53:59.856Z,12.88
2022-09-26T05:56:44.154Z,12.90
2022-09-26T05:59:16.605Z,12.92
2022-09-26T06:02:20.858Z,12.97
2022-09-26T06:05:08.308Z,12.90
2022-09-26T06:07:52.733Z,12.90
2022-09-26T06:11:25.921Z,12.89
2022-09-26T06:14:00.674Z,12.95
2022-09-26T06:16:33.116Z,12.98
2022-09-26T06:19:06.836Z,12.98
2022-09-26T06:21:44.014Z,12.95
2022-09-26T06:24:20.639Z,12.95
2022-09-26T06:27:00.101Z,12.93
2022-09-26T06:29:34.764Z,12.92
2022-09-26T06:32:07.672Z,12.95
2022-09-26T06:34:42.289Z,12.93
2022-09-26T06:37:43.200Z,13.00
2022-09-26T06:40:15.629Z,12.95
2022-09-26T06:42:47.295Z,12.96
2022-09-26T06:45:41.894Z,12.90
2022-09-26T06:48:24.548Z,12.92
2022-09-26T06:51:06.121Z,12.95
2022-09-26T06:53:41.261Z,12.99
2022-09-26T06:56:13.464Z,13.04
2022-09-26T06:58:45.743Z,13.06
2022-09-26T07:01:26.048Z,13.11
2022-09-26T07:04:11.066Z,13.10
2022-09-26T07:06:48.729Z,13.12
2022-09-26T07:09:21.027Z,13.13
2022-09-26T07:12:14.301Z,13.18
2022-09-26T07:14:52.834Z,13.25
2022-09-26T07:17:33.614Z,13.27
2022-09-26T07:20:26.378Z,13.30
2022-09-26T07:23:11.460Z,13.32
2022-09-26T07:25:48.105Z,13.32
2022-09-26T07:28:21.291Z,13.36
2022-09-26T07:30:57.705Z,13.49
2022-09-26T07:34:15.866Z,13.64
2022-09-26T07:36:52.943Z,13.76
2022-09-26T07:39:24.582Z,13.83
2022-09-26T07:41:56.382Z,13.80
2022-09-26T07:45:28.719Z,13.76
2022-09-26T07:47:41.106Z,13.80
2022-09-26T07:50:35.456Z,13.81
2022-09-26T07:53:28.578Z,13.89
2022-09-26T07:56:22.354Z,13.97
2022-09-26T07:59:05.298Z,13.99
2022-09-26T08:01:54.611Z,14.04
2022-09-26T08:04:40.783Z,13.99
2022-09-26T08:07:16.097Z,13.93
2022-09-26T08:10:03.277Z,13.93
2022-09-26T08:12:50.324Z,13.96
2022-09-26T08:15:39.644Z,14.02
2022-09-26T08:18:14.145Z,13.99
2022-09-26T08:20:52.866Z,13.93
2022-09-26T08:23:24.850Z,13.85
2022-09-26T08:26:23.893Z,13.86
2022-09-26T08:29:02.227Z,13.85
2022-09-26T08:31:34.495Z,13.86
2022-09-26T08:34:09.533Z,13.99
2022-09-26T08:36:41.814Z,14.02
2022-09-26T08:39:33.246Z,14.27
2022-09-26T08:42:55.363Z,14.65
2022-09-26T08:46:01.999Z,14.98
2022-09-26T08:48:59.781Z,15.60
2022-09-26T08:51:43.839Z,16.11
2022-09-26T08:54:44.949Z,16.41
2022-09-26T08:57:30.418Z,16.49
2022-09-26T09:00:31.559Z,16.65
2022-09-26T09:03:23.457Z,16.69
2022-09-26T09:06:14.738Z,16.78
2022-09-26T09:08:55.324Z,16.78
2022-09-26T09:11:53.461Z,16.57
2022-09-26T09:15:13.875Z,16.37
2022-09-26T09:18:24.630Z,16.27
2022-09-26T09:21:31.222Z,16.01
2022-09-26T09:24:25.592Z,15.88
2022-09-26T09:27:53.377Z,15.78
2022-09-26T09:30:45.894Z,15.73
2022-09-26T09:33:42.002Z,15.71
2022-09-26T09:36:31.261Z,15.72
2022-09-26T09:39:31.256Z,15.79
2022-09-26T09:42:31.982Z,16.00
2022-09-26T09:45:15.878Z,16.14
2022-09-26T09:47:48.950Z,16.75
2022-09-26T09:50:50.132Z,17.50
2022-09-26T09:54:00.303Z,18.31
2022-09-26T09:56:45.973Z,19.21
2022-09-26T10:00:01.299Z,19.76
2022-09-26T10:02:48.087Z,19.93
2022-09-26T10:05:46.957Z,19.92
2022-09-26T10:08:37.327Z,19.99
2022-09-26T10:11:30.303Z,19.92
2022-09-26T10:14:06.985Z,19.76
2022-09-26T10:17:10.152Z,19.84
2022-09-26T10:19:51.260Z,19.75
2022-09-26T10:22:37.883Z,19.36
2022-09-26T10:25:18.648Z,18.84
2022-09-26T10:27:56.607Z,18.42
2022-09-26T10:30:47.494Z,18.28
2022-09-26T10:33:27.276Z,18.59
2022-09-26T10:36:29.558Z,19.03
2022-09-26T10:39:35.389Z,19.20
2022-09-26T10:42:35.242Z,19.17
2022-09-26T10:45:15.829Z,19.18
2022-09-26T10:47:59.485Z,19.05
2022-09-26T10:51:08.029Z,18.91
2022-09-26T10:53:53.862Z,19.07
2022-09-26T10:56:30.229Z,19.31
2022-09-26T10:59:04.398Z,19.54
2022-09-26T11:01:42.945Z,19.79
2022-09-26T11:04:38.859Z,20.33
2022-09-26T11:07:42.449Z,20.68
2022-09-26T11:10:36.268Z,20.81
2022-09-26T11:13:50.012Z,20.37
2022-09-26T11:16:22.528Z,20.36
2022-09-26T11:19:44.602Z,20.58
2022-09-26T11:22:28.552Z,20.73
2022-09-26T11:25:09.305Z,20.72
2022-09-26T11:28:08.300Z,20.41
2022-09-26T11:31:26.640Z,20.38
2022-09-26T11:34:26.278Z,20.31
2022-09-26T11:37:32.599Z,20.40
2022-09-26T11:40:21.947Z,20.80
2022-09-26T11:43:08.873Z,21.12
2022-09-26T11:46:22.239Z,21.27
2022-09-26T11:49:33.345Z,21.70
2022-09-26T11:52:49.409Z,21.76
2022-09-26T11:55:45.191Z,21.81
2022-09-26T11:58:39.925Z,21.34
2022-09-26T12:01:29.030Z,21.46
2022-09-26T12:04:27.215Z,21.44
2022-09-26T12:07:23.778Z,21.04
2022-09-26T12:10:16.412Z,20.92
2022-09-26T12:13:14.361Z,20.59
2022-09-26T12:16:15.965Z,20.29
2022-09-26T12:18:56.289Z,20.19
2022-09-26T12:21:34.030Z,20.04
2022-09-26T12:24:23.999Z,20.14
2022-09-26T12:27:17.264Z,20.60
2022-09-26T12:30:02.270Z,20.92
2022-09-26T12:33:04.372Z,21.10
2022-09-26T12:35:43.970Z,21.33
2022-09-26T12:38:44.852Z,21.42
2022-09-26T12:41:37.497Z,20.92
2022-09-26T12:44:54.321Z,20.68
2022-09-26T12:47:40.717Z,20.74
2022-09-26T12:50:17.717Z,20.50
2022-09-26T12:52:55.060Z,20.55
2022-09-26T12:55:54.228Z,20.64
2022-09-26T12:58:48.156Z,20.70
2022-09-26T13:01:27.544Z,20.60
2022-09-26T13:04:14.456Z,20.88
2022-09-26T13:07:20.105Z,21.16
2022-09-26T13:10:17.118Z,21.23
2022-09-26T13:13:27.160Z,21.13
2022-09-26T13:16:13.741Z,20.94
2022-09-26T13:18:52.328Z,20.80
2022-09-26T13:21:47.513Z,21.02
2022-09-26T13:24:27.710Z,21.28
2022-09-26T13:27:12.188Z,21.36
2022-09-26T13:29:49.825Z,21.52
2022-09-26T13:32:36.906Z,21.50
2022-09-26T13:35:29.117Z,21.50
2022-09-26T13:38:28.459Z,21.51
2022-09-26T13:41:22.193Z,21.41
2022-09-26T13:44:31.207Z,21.00
2022-09-26T13:47:49.805Z,20.53
2022-09-26T13:50:35.848Z,20.39
2022-09-26T13:53:24.479Z,20.17
2022-09-26T13:56:35.114Z,20.03
2022-09-26T13:59:12.721Z,20.01
2022-09-26T14:02:15.203Z,20.04
2022-09-26T14:04:48.539Z,20.07
2022-09-26T14:08:02.992Z,19.92
2022-09-26T14:10:53.428Z,19.84
2022-09-26T14:13:39.461Z,19.67
2022-09-26T14:16:35.896Z,19.61
2022-09-26T14:19:37.233Z,19.81
2022-09-26T14:22:20.751Z,19.94
2022-09-26T14:24:57.197Z,20.04
2022-09-26T14:27:49.422Z,20.04
2022-09-26T14:30:30.891Z,20.08
2022-09-26T14:33:05.342Z,20.08
2022-09-26T14:35:38.653Z,20.10
2022-09-26T14:38:17.231Z,20.22
2022-09-26T14:40:58.046Z,20.20
2022-09-26T14:43:35.834Z,20.09
2022-09-26T14:46:27.814Z,20.17
2022-09-26T14:49:05.562Z,20.14
2022-09-26T14:51:41.187Z,20.09
2022-09-26T14:54:26.525Z,20.07
2022-09-26T14:57:02.540Z,20.08
2022-09-26T14:59:34.925Z,20.02
2022-09-26T15:02:15.514Z,19.93
2022-09-26T15:04:53.023Z,19.81
2022-09-26T15:07:30.587Z,19.92
2022-09-26T15:10:27.768Z,19.89
2022-09-26T15:13:04.564Z,19.82
2022-09-26T15:15:59.944Z,19.90
2022-09-26T15:18:40.108Z,19.90
2022-09-26T15:21:26.384Z,19.86
2022-09-26T15:23:58.300Z,19.83
2022-09-26T15:26:37.043Z,19.79
2022-09-26T15:29:18.196Z,19.48
2022-09-26T15:31:55.902Z,19.29
2022-09-26T15:34:48.731Z,19.20
2022-09-26T15:37:43.063Z,19.14
2022-09-26T15:40:26.558Z,19.11
2022-09-26T15:43:09.800Z,18.96
2022-09-26T15:45:48.116Z,18.85
2022-09-26T15:48:19.654Z,18.76
2022-09-26T15:51:06.469Z,18.64
2022-09-26T15:53:41.527Z,18.48
2022-09-26T15:56:21.132Z,18.40
2022-09-26T15:59:17.793Z,18.33
2022-09-26T16:01:49.775Z,18.30
2022-09-26T16:04:30.566Z,18.24
2022-09-26T16:07:15.190Z,18.21
2022-09-26T16:09:54.773Z,18.14
2022-09-26T16:12:31.960Z,18.05
2022-09-26T16:15:17.089Z,17.93
2022-09-26T16:17:58.760Z,17.84
2022-09-26T16:20:31.682Z,17.79
2022-09-26T16:23:05.617Z,17.74
2022-09-26T16:25:47.757Z,17.71
2022-09-26T16:28:37.715Z,17.61
2022-09-26T16:31:17.799Z,17.52
2022-09-26T16:33:52.352Z,17.52
2022-09-26T16:36:31.297Z,17.47
2022-09-26T16:39:07.207Z,17.44
2022-09-26T16:44:41.419Z,17.35
2022-09-26T16:47:31.455Z,17.31
2022-09-26T16:50:36.709Z,17.23
2022-09-26T16:53:10.537Z,17.13
2022-09-26T16:55:44.840Z,17.05
2022-09-26T16:58:25.919Z,16.99
2022-09-26T17:01:16.256Z,16.93
2022-09-26T17:03:48.007Z,16.84
2022-09-26T17:06:22.465Z,16.78
2022-09-26T17:08:55.293Z,16.70
2022-09-26T17:11:27.978Z,16.62
2022-09-26T17:13:59.855Z,16.51
2022-09-26T17:16:34.257Z,16.37
2022-09-26T17:19:12.098Z,16.30
2022-09-26T17:21:45.298Z,16.22
2022-09-26T17:24:30.731Z,16.17
2022-09-26T17:27:06.135Z,16.11
2022-09-26T17:29:43.494Z,16.01
2022-09-26T17:32:28.241Z,15.92
2022-09-26T17:35:12.299Z,15.84
2022-09-26T17:37:44.277Z,15.74
2022-09-26T17:40:26.611Z,15.67
2022-09-26T17:43:02.127Z,15.57
2022-09-26T17:45:51.752Z,15.48
2022-09-26T17:48:33.429Z,15.41
2022-09-26T17:51:13.570Z,15.36
2022-09-26T17:53:51.168Z,15.33
2022-09-26T17:56:23.031Z,15.32
2022-09-26T17:58:55.676Z,15.31
2022-09-26T18:01:34.174Z,15.27
2022-09-26T18:04:07.519Z,15.24
2022-09-26T18:06:42.914Z,15.20
2022-09-26T18:09:20.620Z,15.15
2022-09-26T18:12:03.453Z,15.11
2022-09-26T18:14:38.693Z,15.10
2022-09-26T18:17:18.435Z,15.05
2022-09-26T18:19:53.404Z,15.02
2022-09-26T18:22:39.919Z,15.02
2022-09-26T18:25:22.035Z,15.03
2022-09-26T18:27:56.682Z,15.03
2022-09-26T18:30:31.210Z,14.98
2022-09-26T18:33:04.264Z,14.99
2022-09-26T18:35:36.170Z,15.00
2022-09-26T18:38:09.270Z,14.98
2022-09-26T18:40:47.457Z,14.99
2022-09-26T18:43:25.019Z,15.00
2022-09-26T18:45:57.741Z,15.01
2022-09-26T18:48:33.938Z,15.04
2022-09-26T18:51:07.379Z,15.05
2022-09-26T18:53:42.301Z,15.03
2022-09-26T18:56:32.781Z,15.02
2022-09-26T18:59:04.684Z,14.95
2022-09-26T19:01:40.102Z,14.96
2022-09-26T19:04:16.763Z,14.96
2022-09-26T19:07:05.973Z,14.95
2022-09-26T19:09:40.647Z,14.94
2022-09-26T19:12:17.167Z,14.94
2022-09-26T19:14:48.928Z,14.94
2022-09-26T19:17:20.962Z,14.94
2022-09-26T19:19:58.808Z,14.93
2022-09-26T19:22:37.359Z,14.89
2022-09-26T19:25:10.071Z,14.83
2022-09-26T19:27:52.181Z,14.79
2022-09-26T19:30:26.608Z,14.74
2022-09-26T19:33:01.910Z,14.70
2022-09-26T19:35:36.673Z,14.69
2022-09-26T19:38:33.439Z,14.65
2022-09-26T19:41:06.075Z,14.62
2022-09-26T19:43:40.840Z,14.56
2022-09-26T19:46:23.344Z,14.50
2022-09-26T19:48:55.101Z,14.43
2022-09-26T19:51:29.009Z,14.38
2022-09-26T19:54:05.929Z,14.32
2022-09-26T19:56:42.500Z,14.17
2022-09-26T19:59:17.461Z,13.99
2022-09-26T20:01:51.690Z,13.79
2022-09-26T20:04:23.664Z,13.77
2022-09-26T20:06:55.221Z,13.78
2022-09-26T20:09:27.786Z,13.80
2022-09-26T20:11:59.774Z,13.79
2022-09-26T20:14:31.734Z,13.76
2022-09-26T20:17:12.455Z,13.74
2022-09-26T20:19:46.865Z,13.70
2022-09-26T20:22:22.068Z,13.65
2022-09-26T20:24:57.166Z,13.58
2022-09-26T20:27:29.399Z,13.55
2022-09-26T20:30:19.669Z,13.53
2022-09-26T20:32:51.284Z,13.46
2022-09-26T20:35:23.413Z,13.45
2022-09-26T20:38:07.908Z,13.39
2022-09-26T20:40:40.015Z,13.37
2022-09-26T20:43:16.759Z,13.34
2022-09-26T20:45:51.189Z,13.32
2022-09-26T20:48:25.697Z,13.32
2022-09-26T20:51:00.700Z,13.28
2022-09-26T20:53:32.332Z,13.29
2022-09-26T20:56:04.149Z,13.27
2022-09-26T20:58:35.737Z,13.23
2022-09-26T21:01:12.273Z,13.19
2022-09-26T21:03:48.401Z,13.21
2022-09-26T21:06:22.483Z,13.22
2022-09-26T21:08:57.594Z,13.21
2022-09-26T21:11:32.135Z,13.22
2022-09-26T21:14:06.072Z,13.18
2022-09-26T21:16:43.982Z,13.14
2022-09-26T21:19:20.781Z,13.06
2022-09-26T21:21:56.636Z,13.05
2022-09-26T21:24:43.500Z,13.04
2022-09-26T21:27:18.350Z,13.05
2022-09-26T21:29:49.952Z,13.02
2022-09-26T21:32:22.994Z,13.01
2022-09-26T21:35:04.746Z,13.00
2022-09-26T21:37:39.066Z,12.96
2022-09-26T21:40:13.978Z,12.94
2022-09-26T21:42:50.784Z,12.89
2022-09-26T21:45:27.074Z,12.87
2022-09-26T21:48:02.457Z,12.90
2022-09-26T21:51:00.195Z,12.88
2022-09-26T21:53:36.512Z,12.86
2022-09-26T21:56:20.961Z,12.89
2022-09-26T21:58:53.195Z,12.87
2022-09-26T22:01:24.872Z,12.87
2022-09-26T22:03:59.351Z,12.80
2022-09-26T22:06:32.519Z,12.80
2022-09-26T22:09:04.604Z,12.68
2022-09-26T22:11:40.164Z,12.72
2022-09-26T22:14:14.096Z,12.74
2022-09-26T22:16:48.083Z,12.76
2022-09-26T22:19:19.824Z,12.80
2022-09-26T22:21:51.430Z,12.81
2022-09-26T22:24:23.055Z,12.84
2022-09-26T22:26:57.635Z,12.85
2022-09-26T22:29:29.171Z,12.86
2022-09-26T22:32:01.368Z,12.87
2022-09-26T22:34:35.649Z,12.89
2022-09-26T22:37:07.556Z,12.88
2022-09-26T22:39:39.234Z,12.88
2022-09-26T22:42:12.306Z,12.88
2022-09-26T22:44:46.572Z,12.87
2022-09-26T22:47:18.139Z,12.82
2022-09-26T22:49:49.809Z,12.68
2022-09-26T22:52:21.406Z,12.62
2022-09-26T22:54:53.028Z,12.66
2022-09-26T22:57:25.054Z,12.74
2022-09-26T22:59:56.996Z,12.74
2022-09-26T23:02:28.641Z,12.76
2022-09-26T23:05:00.299Z,12.85
2022-09-26T23:07:31.998Z,12.90
2022-09-26T23:10:03.724Z,12.84
2022-09-26T23:12:35.303Z,12.74
2022-09-26T23:15:09.462Z,12.62
2022-09-26T23:17:41.084Z,12.60
2022-09-26T23:20:12.700Z,12.64
2022-09-26T23:22:44.311Z,12.69
2022-09-26T23:25:16.299Z,12.62
2022-09-26T23:27:47.951Z,12.69
2022-09-26T23:30:24.033Z,12.76
2022-09-26T23:32:55.897Z,12.76
2022-09-26T23:35:27.527Z,12.77
2022-09-26T23:37:59.618Z,12.68
2022-09-26T23:40:34.285Z,12.62
2022-09-26T23:43:07.051Z,12.60
2022-09-26T23:45:43.142Z,12.65
2022-09-26T23:48:15.197Z,12.70
2022-09-26T23:50:47.508Z,12.72
2022-09-26T23:53:19.239Z,12.69
2022-09-26T23:55:50.971Z,12.71
2022-09-26T23:58:22.551Z,12.76
